createdAt,value
2019-04-05T00:00:24.697Z,90.95
2019-04-05T00:01:34.628Z,91.52
2019-04-05T00:02:44.573Z,92.66
2019-04-05T00:03:54.602Z,93.04
2019-04-05T00:05:04.526Z,92.66
2019-04-05T00:06:14.469Z,93.04
2019-04-05T00:07:24.411Z,92.38
2019-04-05T00:08:34.340Z,92.94
2019-04-05T00:09:44.312Z,92.85
2019-04-05T00:10:53.987Z,92.76
2019-04-05T00:12:03.918Z,92.47
2019-04-05T00:13:13.846Z,91.33
2019-04-05T00:14:23.767Z,92.47
2019-04-05T00:15:33.719Z,92.28
2019-04-05T00:16:45.693Z,92.85
2019-04-05T00:17:55.622Z,92.47
2019-04-05T00:19:05.547Z,92.76
2019-04-05T00:20:15.468Z,92.38
2019-04-05T00:21:25.405Z,92.38
2019-04-05T00:22:35.080Z,92.47
2019-04-05T00:23:45.006Z,92.57
2019-04-05T00:24:54.932Z,92.66
2019-04-05T00:26:04.931Z,91.81
2019-04-05T00:27:14.905Z,92.57
2019-04-05T00:28:24.836Z,92.28
2019-04-05T00:29:34.760Z,92.19
2019-04-05T00:30:44.748Z,92.47
2019-04-05T00:31:54.679Z,92.57
2019-04-05T00:33:04.598Z,92.66
2019-04-05T00:34:14.533Z,92.47
2019-04-05T00:35:24.458Z,92.66
2019-04-05T00:36:34.392Z,92.66
2019-04-05T00:37:44.313Z,92.76
2019-04-05T00:38:54.333Z,92.76
2019-04-05T00:40:04.277Z,92.76
2019-04-05T00:41:14.199Z,92.76
2019-04-05T00:42:24.124Z,92.47
2019-04-05T00:43:34.051Z,92.38
2019-04-05T00:44:44.026Z,92.52
2019-04-05T00:45:53.982Z,92.9
2019-04-05T00:47:03.917Z,92.85
2019-04-05T00:48:13.914Z,92.99
2019-04-05T00:49:23.835Z,92.71
2019-04-05T00:50:33.764Z,93.27
2019-04-05T00:51:43.701Z,92.8
2019-04-05T00:52:53.629Z,92.99
2019-04-05T00:54:03.555Z,92.42
2019-04-05T00:55:13.483Z,92.8
2019-04-05T00:56:23.415Z,92.33
2019-04-05T00:57:33.342Z,92.9
2019-04-05T00:58:43.266Z,92.14
2019-04-05T00:59:53.204Z,92.61
2019-04-05T01:01:03.144Z,92.71
2019-04-05T01:02:13.125Z,92.52
2019-04-05T01:03:23.056Z,91.95
2019-04-05T01:04:32.987Z,91.76
2019-04-05T01:05:42.910Z,91.66
2019-04-05T01:06:52.840Z,91.19
2019-04-05T01:08:02.776Z,91.47
2019-04-05T01:09:12.713Z,91.85
2019-04-05T01:10:22.638Z,91
2019-04-05T01:11:32.565Z,91.57
2019-04-05T01:12:42.489Z,91
2019-04-05T01:13:52.546Z,91.28
2019-04-05T01:15:02.478Z,91.47
2019-04-05T01:16:12.420Z,90.62
2019-04-05T01:17:27.683Z,90.72
2019-04-05T01:18:37.613Z,90.81
2019-04-05T01:19:47.705Z,90.62
2019-04-05T01:20:57.627Z,90.24
2019-04-05T01:22:07.570Z,90.15
2019-04-05T01:23:17.491Z,90.53
2019-04-05T01:24:27.415Z,90.53
2019-04-05T01:25:37.395Z,90.34
2019-04-05T01:26:47.324Z,91
2019-04-05T01:27:57.259Z,91.66
2019-04-05T01:29:07.262Z,91.09
2019-04-05T01:30:17.189Z,91.09
2019-04-05T01:31:27.117Z,90.72
2019-04-05T01:32:37.040Z,90.62
2019-04-05T01:33:46.959Z,91
2019-04-05T01:34:56.889Z,91.47
2019-04-05T01:36:06.948Z,91
2019-04-05T01:37:16.869Z,90.81
2019-04-05T01:38:26.793Z,90.53
2019-04-05T01:39:36.715Z,90.62
2019-04-05T01:40:46.643Z,90.62
2019-04-05T01:41:56.610Z,90.81
2019-04-05T01:43:06.639Z,92.52
2019-04-05T01:44:16.561Z,91.66
2019-04-05T01:45:26.488Z,90.81
2019-04-05T01:46:36.418Z,92.04
2019-04-05T01:47:46.338Z,91.85
2019-04-05T01:48:56.380Z,92.99
2019-04-05T01:50:06.311Z,92.04
2019-04-05T01:51:16.243Z,91.38
2019-04-05T01:52:26.183Z,92.33
2019-04-05T01:53:36.128Z,92.52
2019-04-05T01:54:46.075Z,91.76
2019-04-05T01:55:56.001Z,91.19
2019-04-05T01:57:05.927Z,91.76
2019-04-05T01:58:15.596Z,91.38
2019-04-05T01:59:25.526Z,91.09
2019-04-05T02:00:35.501Z,91.09
2019-04-05T02:01:45.430Z,91
2019-04-05T02:02:55.360Z,91.85
2019-04-05T02:04:05.325Z,92.33
2019-04-05T02:05:15.258Z,91.38
2019-04-05T02:06:25.198Z,91.28
2019-04-05T02:07:35.122Z,91.28
2019-04-05T02:08:45.044Z,92.9
2019-04-05T02:09:54.974Z,92.52
2019-04-05T02:11:04.396Z,91.76
2019-04-05T02:12:14.317Z,91.76
2019-04-05T02:13:24.250Z,91.95
2019-04-05T02:14:34.190Z,91.85
2019-04-05T02:15:44.133Z,92.04
2019-04-05T02:16:54.122Z,92.14
2019-04-05T02:18:04.146Z,92.14
2019-04-05T02:19:14.071Z,93.08
2019-04-05T02:20:23.993Z,92.71
2019-04-05T02:21:33.913Z,92.8
2019-04-05T02:22:43.842Z,93.27
2019-04-05T02:23:53.764Z,92.42
2019-04-05T02:25:03.706Z,92.52
2019-04-05T02:26:13.635Z,92.33
2019-04-05T02:27:23.556Z,92.52
2019-04-05T02:28:33.481Z,92.52
2019-04-05T02:29:43.406Z,91.85
2019-04-05T02:30:53.333Z,92.04
2019-04-05T02:32:03.274Z,92.14
2019-04-05T02:33:13.229Z,92.8
2019-04-05T02:34:23.175Z,93.27
2019-04-05T02:35:33.183Z,92.9
2019-04-05T02:36:46.606Z,93.37
2019-04-05T02:37:56.303Z,93.18
2019-04-05T02:39:06.380Z,93.37
2019-04-05T02:40:16.327Z,93.08
2019-04-05T02:41:26.266Z,92.8
2019-04-05T02:42:36.203Z,92.61
2019-04-05T02:43:46.149Z,92.8
2019-04-05T02:44:56.097Z,92.61
2019-04-05T02:46:22.074Z,92.99
2019-04-05T02:47:32.575Z,93.32
2019-04-05T02:48:42.510Z,93.42
2019-04-05T02:49:52.561Z,93.13
2019-04-05T02:51:02.495Z,92.9
2019-04-05T02:52:12.537Z,93.13
2019-04-05T02:53:22.493Z,93.61
2019-04-05T02:54:32.419Z,94.27
2019-04-05T02:55:42.383Z,94.08
2019-04-05T02:56:52.073Z,94.46
2019-04-05T02:58:02.111Z,94.84
2019-04-05T02:59:12.057Z,94.18
2019-04-05T03:00:22.016Z,94.18
2019-04-05T03:01:31.948Z,94.56
2019-04-05T03:02:41.902Z,95.98
2019-04-05T03:03:51.827Z,96.36
2019-04-05T03:05:01.811Z,95.31
2019-04-05T03:06:11.811Z,95.5
2019-04-05T03:07:21.759Z,95.03
2019-04-05T03:08:31.695Z,95.69
2019-04-05T03:09:41.744Z,95.31
2019-04-05T03:10:51.700Z,95.41
2019-04-05T03:12:01.657Z,95.22
2019-04-05T03:13:11.589Z,95.22
2019-04-05T03:14:21.630Z,95.6
2019-04-05T03:15:31.591Z,95.5
2019-04-05T03:16:44.275Z,95.5
2019-04-05T03:17:54.203Z,95.6
2019-04-05T03:19:04.173Z,95.69
2019-04-05T03:20:14.173Z,94.56
2019-04-05T03:21:24.111Z,94.18
2019-04-05T03:22:34.122Z,94.74
2019-04-05T03:23:44.098Z,95.03
2019-04-05T03:24:54.101Z,95.03
2019-04-05T03:26:04.270Z,95.79
2019-04-05T03:27:14.329Z,95.79
2019-04-05T03:28:24.268Z,96.31
2019-04-05T03:29:34.218Z,96.17
2019-04-05T03:30:44.178Z,96.73
2019-04-05T03:31:54.180Z,97.06
2019-04-05T03:33:03.909Z,97.06
2019-04-05T03:34:13.993Z,97.82
2019-04-05T03:35:24.051Z,97.59
2019-04-05T03:36:34.029Z,97.02
2019-04-05T03:37:43.959Z,98.01
2019-04-05T03:38:53.894Z,97.35
2019-04-05T03:40:03.846Z,97.59
2019-04-05T03:41:13.593Z,97.63
2019-04-05T03:42:23.566Z,98.2
2019-04-05T03:43:33.500Z,98.39
2019-04-05T03:44:43.477Z,97.82
2019-04-05T03:45:53.436Z,98.2
2019-04-05T03:47:03.378Z,98.49
2019-04-05T03:48:13.320Z,99.99
2019-04-05T03:49:23.252Z,99.24
2019-04-05T03:50:33.190Z,98.49
2019-04-05T03:51:43.129Z,98.39
2019-04-05T03:52:52.813Z,98.2
2019-04-05T03:54:02.761Z,97.92
2019-04-05T03:55:12.454Z,97.82
2019-04-05T03:56:22.395Z,98.11
2019-04-05T03:57:32.392Z,98.49
2019-04-05T03:58:42.363Z,98.68
2019-04-05T03:59:52.332Z,98.58
2019-04-05T04:01:02.028Z,98.39
2019-04-05T04:02:12.063Z,98.49
2019-04-05T04:03:22.017Z,97.25
2019-04-05T04:04:31.982Z,98.39
2019-04-05T04:05:41.939Z,98.58
2019-04-05T04:06:51.902Z,98.58
2019-04-05T04:08:01.847Z,99.33
2019-04-05T04:09:11.804Z,99.52
2019-04-05T04:10:21.831Z,99.71
2019-04-05T04:11:31.776Z,99.81
2019-04-05T04:12:41.729Z,99.24
2019-04-05T04:13:51.682Z,98.58
2019-04-05T04:15:01.642Z,98.86
2019-04-05T04:16:11.375Z,98.49
2019-04-05T04:17:21.331Z,98.68
2019-04-05T04:18:31.282Z,99.05
2019-04-05T04:19:41.268Z,99.33
2019-04-05T04:20:51.204Z,99.58
2019-04-05T04:22:01.161Z,98.77
2019-04-05T04:23:11.095Z,99.29
2019-04-05T04:24:21.072Z,99.48
2019-04-05T04:25:31.059Z,99.58
2019-04-05T04:26:40.987Z,99.1
2019-04-05T04:27:50.953Z,99.58
2019-04-05T04:29:00.901Z,99.67
2019-04-05T04:30:10.623Z,99.58
2019-04-05T04:31:20.679Z,98.72
2019-04-05T04:32:30.618Z,98.91
2019-04-05T04:33:40.563Z,98.44
2019-04-05T04:34:50.608Z,99.2
2019-04-05T04:36:00.579Z,99.01
2019-04-05T04:37:10.376Z,99.2
2019-04-05T04:38:20.093Z,98.63
2019-04-05T04:39:30.029Z,98.44
2019-04-05T04:40:39.959Z,98.72
2019-04-05T04:41:49.909Z,98.72
2019-04-05T04:42:59.849Z,97.87
2019-04-05T04:44:09.784Z,97.68
2019-04-05T04:45:19.475Z,97.4
2019-04-05T04:46:29.168Z,97.02
2019-04-05T04:47:39.098Z,97.59
2019-04-05T04:48:49.046Z,98.16
2019-04-05T04:49:58.741Z,97.97
2019-04-05T04:51:08.728Z,98.06
2019-04-05T04:52:18.651Z,97.97
2019-04-05T04:53:28.574Z,97.68
2019-04-05T04:54:38.546Z,97.11
2019-04-05T04:55:48.469Z,96.45
2019-04-05T04:56:58.402Z,96.73
2019-04-05T04:58:08.345Z,97.02
2019-04-05T04:59:18.019Z,97.35
2019-04-05T05:00:28.292Z,97.45
2019-04-05T05:01:38.213Z,96.73
2019-04-05T05:02:48.148Z,96.59
2019-04-05T05:03:58.073Z,96.36
2019-04-05T05:05:11.100Z,96.69
2019-04-05T05:06:21.121Z,96.73
2019-04-05T05:07:31.060Z,96.69
2019-04-05T05:08:40.987Z,96.88
2019-04-05T05:09:50.909Z,95.65
2019-04-05T05:11:00.826Z,95.93
2019-04-05T05:12:21.946Z,95.84
2019-04-05T05:13:31.899Z,95.65
2019-04-05T05:14:41.820Z,95.74
2019-04-05T05:15:51.740Z,95.79
2019-04-05T05:17:01.664Z,96.92
2019-04-05T05:18:11.588Z,96.45
2019-04-05T05:19:21.532Z,96.92
2019-04-05T05:20:31.462Z,96.92
2019-04-05T05:21:41.389Z,96.36
2019-04-05T05:22:51.311Z,96.73
2019-04-05T05:24:01.231Z,96.45
2019-04-05T05:25:11.162Z,96.26
2019-04-05T05:26:21.131Z,95.98
2019-04-05T05:27:31.059Z,96.17
2019-04-05T05:28:41.038Z,96.45
2019-04-05T05:29:51.018Z,96.26
2019-04-05T05:31:00.938Z,96.45
2019-04-05T05:32:12.239Z,96.83
2019-04-05T05:33:22.166Z,96.73
2019-04-05T05:34:32.110Z,95.98
2019-04-05T05:35:42.030Z,96.17
2019-04-05T05:36:51.965Z,96.17
2019-04-05T05:38:01.898Z,96.64
2019-04-05T05:39:11.849Z,97.49
2019-04-05T05:40:33.968Z,97.68
2019-04-05T05:41:44.720Z,97.59
2019-04-05T05:42:54.653Z,98.25
2019-04-05T05:44:04.586Z,97.97
2019-04-05T05:45:14.512Z,98.91
2019-04-05T05:46:24.491Z,98.82
2019-04-05T05:47:34.414Z,98.16
2019-04-05T05:48:56.854Z,98.35
2019-04-05T05:50:06.787Z,97.97
2019-04-05T05:51:16.718Z,97.78
2019-04-05T05:52:26.647Z,98.06
2019-04-05T05:53:36.577Z,97.02
2019-04-05T05:54:46.496Z,98.35
2019-04-05T05:55:56.424Z,97.87
2019-04-05T05:57:06.352Z,98.25
2019-04-05T05:58:16.278Z,97.97
2019-04-05T05:59:32.378Z,96.92
2019-04-05T06:00:42.311Z,97.11
2019-04-05T06:01:52.250Z,96.92
2019-04-05T06:03:02.220Z,96.22
2019-04-05T06:04:19.490Z,96.78
2019-04-05T06:05:29.414Z,96.59
2019-04-05T06:06:39.340Z,96.97
2019-04-05T06:07:49.262Z,97.07
2019-04-05T06:08:59.182Z,96.41
2019-04-05T06:10:08.864Z,96.22
2019-04-05T06:11:18.791Z,96.5
2019-04-05T06:12:28.776Z,96.41
2019-04-05T06:13:38.456Z,96.41
2019-04-05T06:14:48.376Z,95.84
2019-04-05T06:15:58.308Z,95.45
2019-04-05T06:17:08.240Z,95.36
2019-04-05T06:18:18.166Z,94.98
2019-04-05T06:19:27.840Z,94.32
2019-04-05T06:20:37.810Z,95.74
2019-04-05T06:21:47.753Z,95.45
2019-04-05T06:22:57.697Z,95.26
2019-04-05T06:24:07.885Z,94.42
2019-04-05T06:25:17.814Z,94.7
2019-04-05T06:26:27.805Z,94.32
2019-04-05T06:27:38.036Z,94.42
2019-04-05T06:28:47.888Z,93.94
2019-04-05T06:29:58.236Z,94.04
2019-04-05T06:31:08.011Z,93.37
2019-04-05T06:32:17.953Z,93.37
2019-04-05T06:33:35.782Z,92.9
2019-04-05T06:34:45.824Z,93.27
2019-04-05T06:35:55.773Z,93.65
2019-04-05T06:37:05.446Z,94.04
2019-04-05T06:38:15.419Z,93.94
2019-04-05T06:39:25.126Z,95.55
2019-04-05T06:40:43.137Z,94.42
2019-04-05T06:41:53.070Z,94.04
2019-04-05T06:43:02.995Z,93.65
2019-04-05T06:44:14.299Z,94.13
2019-04-05T06:45:24.220Z,93.94
2019-04-05T06:46:34.145Z,94.23
2019-04-05T06:47:44.094Z,94.23
2019-04-05T06:48:54.164Z,95.26
2019-04-05T06:50:04.538Z,95.45
2019-04-05T06:51:14.488Z,94.98
2019-04-05T06:52:24.423Z,94.42
2019-04-05T06:53:34.355Z,94.42
2019-04-05T06:54:44.288Z,93.56
2019-04-05T06:55:54.312Z,93.65
2019-04-05T06:57:07.235Z,94.42
2019-04-05T06:59:52.906Z,94.32
2019-04-05T07:01:02.920Z,94.13
2019-04-05T07:02:12.862Z,95.17
2019-04-05T07:03:25.951Z,94.98
2019-04-05T07:04:35.659Z,94.7
2019-04-05T07:05:45.598Z,94.51
2019-04-05T07:06:55.526Z,94.6
2019-04-05T07:08:05.453Z,94.04
2019-04-05T07:09:15.388Z,92.9
2019-04-05T07:10:25.314Z,92.99
2019-04-05T07:11:35.237Z,94.23
2019-04-05T07:12:45.072Z,94.32
2019-04-05T07:13:55.263Z,93.65
2019-04-05T07:15:04.946Z,92.8
2019-04-05T07:16:14.898Z,92.61
2019-04-05T07:17:24.845Z,92.99
2019-04-05T07:18:38.569Z,93.65
2019-04-05T07:19:48.509Z,92.71
2019-04-05T07:21:00.351Z,93.46
2019-04-05T07:22:10.284Z,93.08
2019-04-05T07:23:20.218Z,94.42
2019-04-05T07:24:30.291Z,92.94
2019-04-05T07:25:40.217Z,92.9
2019-04-05T07:26:49.895Z,92.61
2019-04-05T07:27:59.820Z,92.8
2019-04-05T07:29:09.751Z,93.08
2019-04-05T07:30:19.728Z,92.76
2019-04-05T07:31:31.729Z,93.04
2019-04-05T07:32:41.657Z,93.04
2019-04-05T07:33:51.581Z,92.85
2019-04-05T07:35:03.844Z,92.18
2019-04-05T07:36:13.835Z,92.57
2019-04-05T07:37:23.758Z,92.38
2019-04-05T07:38:33.681Z,91.8
2019-04-05T07:39:43.606Z,91.52
2019-04-05T07:40:53.681Z,91.24
2019-04-05T07:42:03.617Z,91.09
2019-04-05T07:43:13.549Z,90.24
2019-04-05T07:44:23.474Z,90.43
2019-04-05T07:45:33.410Z,89.29
2019-04-05T07:46:46.263Z,89.39
2019-04-05T07:47:56.544Z,89
2019-04-05T07:49:06.714Z,88.34
2019-04-05T07:50:16.650Z,88.15
2019-04-05T07:51:26.587Z,87.96
2019-04-05T07:52:36.559Z,87.96
2019-04-05T07:53:46.679Z,87.87
2019-04-05T07:54:56.604Z,87.87
2019-04-05T07:56:06.530Z,88.15
2019-04-05T07:57:16.457Z,88.15
2019-04-05T07:58:26.459Z,88.06
2019-04-05T07:59:36.510Z,87.87
2019-04-05T08:00:46.433Z,87.11
2019-04-05T08:01:56.384Z,87.49
2019-04-05T08:03:06.310Z,87.3
2019-04-05T08:04:16.248Z,86.91
2019-04-05T08:05:26.237Z,87.39
2019-04-05T08:06:36.165Z,87.77
2019-04-05T08:07:45.855Z,87.87
2019-04-05T08:08:55.791Z,87.49
2019-04-05T08:10:07.512Z,86.91
2019-04-05T08:11:17.582Z,87.3
2019-04-05T08:12:27.521Z,87.39
2019-04-05T08:13:37.461Z,87.11
2019-04-05T08:14:47.413Z,86.91
2019-04-05T08:15:57.336Z,87.11
2019-04-05T08:17:09.027Z,87.2
2019-04-05T08:18:18.706Z,86.3
2019-04-05T08:19:28.655Z,86.49
2019-04-05T08:20:38.581Z,86.2
2019-04-05T08:21:48.506Z,86.49
2019-04-05T08:22:58.528Z,86.77
2019-04-05T08:24:08.207Z,86.39
2019-04-05T08:25:18.150Z,85.72
2019-04-05T08:26:28.072Z,85.35
2019-04-05T08:27:38.034Z,85.72
2019-04-05T08:28:47.989Z,86.01
2019-04-05T08:29:57.972Z,85.72
2019-04-05T08:31:10.615Z,85.82
2019-04-05T08:32:22.289Z,85.53
2019-04-05T08:33:32.220Z,85.06
2019-04-05T08:34:44.155Z,85.25
2019-04-05T08:35:54.084Z,84.97
2019-04-05T08:37:04.008Z,84.97
2019-04-05T08:38:13.945Z,84.49
2019-04-05T08:39:23.889Z,84.21
2019-04-05T08:40:34.212Z,83.97
2019-04-05T08:41:44.140Z,84.91
2019-04-05T08:42:54.085Z,84.44
2019-04-05T08:44:04.074Z,84.16
2019-04-05T08:45:14.009Z,85.01
2019-04-05T08:46:24.086Z,85.2
2019-04-05T08:47:34.030Z,84.06
2019-04-05T08:48:43.982Z,83.87
2019-04-05T08:49:55.012Z,84.06
2019-04-05T08:51:04.943Z,83.87
2019-04-05T08:52:14.921Z,84.44
2019-04-05T08:53:24.848Z,83.87
2019-04-05T08:54:38.854Z,83.78
2019-04-05T08:55:48.781Z,83.97
2019-04-05T08:56:58.769Z,83.78
2019-04-05T08:58:08.760Z,83.39
2019-04-05T08:59:18.436Z,83.2
2019-04-05T09:00:28.415Z,83.01
2019-04-05T09:01:38.339Z,83.01
2019-04-05T09:02:47.989Z,83.49
2019-04-05T09:03:58.586Z,82.92
2019-04-05T09:05:08.523Z,83.59
2019-04-05T09:06:18.484Z,83.11
2019-04-05T09:07:28.433Z,83.01
2019-04-05T09:08:38.381Z,83.11
2019-04-05T09:09:48.359Z,83.2
2019-04-05T09:10:58.293Z,83.39
2019-04-05T09:12:08.221Z,83.11
2019-04-05T09:13:18.146Z,83.59
2019-04-05T09:14:28.080Z,83.49
2019-04-05T09:15:38.085Z,83.01
2019-04-05T09:16:47.838Z,83.11
2019-04-05T09:17:57.765Z,83.2
2019-04-05T09:19:07.696Z,83.2
2019-04-05T09:20:30.659Z,82.92
2019-04-05T09:21:43.076Z,83.2
2019-04-05T09:22:53.001Z,83.2
2019-04-05T09:24:02.932Z,83.3
2019-04-05T09:25:12.864Z,82.82
2019-04-05T09:26:25.225Z,83.3
2019-04-05T09:27:35.153Z,82.73
2019-04-05T09:28:45.081Z,82.82
2019-04-05T09:29:55.009Z,82.73
2019-04-05T09:31:04.950Z,82.64
2019-04-05T09:32:14.925Z,82.92
2019-04-05T09:33:24.850Z,82.45
2019-04-05T09:34:34.777Z,81.87
2019-04-05T09:35:44.721Z,82.07
2019-04-05T09:36:54.395Z,81.68
2019-04-05T09:38:04.324Z,82.16
2019-04-05T09:39:18.097Z,81.97
2019-04-05T09:40:28.027Z,82.58
2019-04-05T09:41:38.018Z,81.82
2019-04-05T09:42:47.730Z,81.63
2019-04-05T09:43:57.657Z,81.16
2019-04-05T09:45:07.591Z,80.96
2019-04-05T09:46:17.525Z,80.49
2019-04-05T09:47:27.446Z,80.58
2019-04-05T09:48:37.377Z,81.25
2019-04-05T09:49:47.350Z,80.87
2019-04-05T09:50:57.290Z,80.77
2019-04-05T09:52:10.045Z,80.77
2019-04-05T09:53:19.725Z,80.77
2019-04-05T09:54:29.662Z,80.77
2019-04-05T09:55:39.697Z,80.77
2019-04-05T09:56:49.619Z,81.25
2019-04-05T09:58:02.013Z,80.77
2019-04-05T09:59:15.229Z,80.49
2019-04-05T10:00:25.154Z,80.49
2019-04-05T10:01:35.131Z,80.87
2019-04-05T10:02:45.053Z,80.96
2019-04-05T10:03:54.984Z,80.96
2019-04-05T10:05:04.912Z,81.16
2019-04-05T10:06:14.842Z,80.49
2019-04-05T10:07:24.776Z,80.4
2019-04-05T10:08:34.748Z,80.87
2019-04-05T10:09:44.674Z,81.06
2019-04-05T10:10:55.749Z,80.77
2019-04-05T10:12:05.678Z,80.58
2019-04-05T10:13:15.674Z,80.87
2019-04-05T10:14:25.619Z,80.58
2019-04-05T10:15:35.546Z,79.54
2019-04-05T10:16:45.469Z,79.92
2019-04-05T10:17:55.396Z,80.02
2019-04-05T10:19:05.377Z,80.11
2019-04-05T10:20:15.301Z,79.92
2019-04-05T10:21:25.231Z,80.11
2019-04-05T10:22:35.159Z,80.02
2019-04-05T10:23:45.085Z,80.68
2019-04-05T10:24:55.113Z,80.11
2019-04-05T10:26:05.040Z,80.21
2019-04-05T10:27:14.968Z,80.77
2019-04-05T10:28:25.959Z,80.11
2019-04-05T10:29:35.893Z,80.21
2019-04-05T10:30:46.020Z,80.21
2019-04-05T10:31:57.390Z,79.73
2019-04-05T10:33:07.333Z,80.02
2019-04-05T10:34:17.261Z,79.92
2019-04-05T10:35:27.194Z,79.73
2019-04-05T10:36:37.219Z,79.73
2019-04-05T10:37:47.149Z,79.92
2019-04-05T10:38:57.106Z,79.16
2019-04-05T10:40:07.048Z,78.97
2019-04-05T10:41:16.995Z,79.25
2019-04-05T10:42:28.468Z,79.44
2019-04-05T10:43:38.391Z,79.44
2019-04-05T10:44:48.314Z,79.25
2019-04-05T10:45:58.335Z,79.16
2019-04-05T10:47:08.337Z,79.16
2019-04-05T10:48:18.316Z,78.97
2019-04-05T10:49:28.239Z,78.97
2019-04-05T10:50:38.166Z,79.35
2019-04-05T10:51:48.107Z,79.16
2019-04-05T10:52:58.028Z,79.63
2019-04-05T10:54:09.509Z,79.44
2019-04-05T10:55:19.608Z,79.16
2019-04-05T10:56:29.539Z,78.78
2019-04-05T10:57:39.484Z,79.06
2019-04-05T10:58:49.170Z,79.25
2019-04-05T10:59:59.205Z,80.3
2019-04-05T11:01:09.142Z,79.83
2019-04-05T11:02:19.063Z,79.54
2019-04-05T11:03:28.826Z,79.83
2019-04-05T11:04:38.756Z,80.11
2019-04-05T11:05:51.811Z,80.26
2019-04-05T11:07:01.754Z,80.55
2019-04-05T11:08:11.692Z,80.45
2019-04-05T11:09:21.617Z,80.45
2019-04-05T11:10:31.545Z,80.83
2019-04-05T11:11:41.572Z,80.83
2019-04-05T11:12:52.542Z,80.93
2019-04-05T11:14:15.615Z,80.35
2019-04-05T11:15:25.544Z,80.16
2019-04-05T11:16:38.317Z,80.64
2019-04-05T11:18:00.729Z,80.93
2019-04-05T11:19:12.334Z,81.21
2019-04-05T11:20:24.477Z,81.12
2019-04-05T11:21:34.407Z,80.93
2019-04-05T11:22:46.613Z,80.93
2019-04-05T11:23:58.807Z,80.93
2019-04-05T11:25:08.735Z,80.83
2019-04-05T11:26:18.672Z,80.83
2019-04-05T11:27:28.606Z,80.64
2019-04-05T11:28:38.541Z,80.55
2019-04-05T11:29:48.467Z,80.26
2019-04-05T11:31:00.708Z,80.45
2019-04-05T11:32:10.634Z,81.21
2019-04-05T11:33:22.432Z,80.45
2019-04-05T11:34:32.417Z,80.55
2019-04-05T11:35:42.343Z,79.69
2019-04-05T11:36:51.767Z,80.49
2019-04-05T11:38:01.718Z,80.58
2019-04-05T11:39:11.652Z,80.07
2019-04-05T11:40:24.018Z,80.58
2019-04-05T11:41:34.118Z,79.92
2019-04-05T11:42:44.044Z,80.45
2019-04-05T11:43:53.976Z,80.35
2019-04-05T11:45:06.517Z,80.83
2019-04-05T11:46:18.155Z,80.55
2019-04-05T11:47:28.310Z,80.26
2019-04-05T11:48:41.132Z,80.68
2019-04-05T11:49:51.269Z,80.4
2019-04-05T11:51:02.699Z,80.02
2019-04-05T11:52:12.677Z,80.58
2019-04-05T11:53:24.499Z,80.4
2019-04-05T11:54:34.422Z,80.58
2019-04-05T11:55:46.483Z,79.83
2019-04-05T11:56:56.682Z,79.92
2019-04-05T11:58:06.608Z,80.21
2019-04-05T11:59:18.530Z,80.21
2019-04-05T12:00:28.450Z,79.73
2019-04-05T12:01:38.375Z,80.02
2019-04-05T12:02:48.309Z,79.44
2019-04-05T12:03:58.238Z,79.54
2019-04-05T12:05:08.162Z,79.73
2019-04-05T12:06:17.835Z,79.44
2019-04-05T12:07:29.696Z,79.35
2019-04-05T12:08:39.643Z,79.16
2019-04-05T12:09:50.951Z,78.88
2019-04-05T12:11:00.873Z,79.44
2019-04-05T12:12:10.801Z,79.44
2019-04-05T12:13:20.732Z,78.88
2019-04-05T12:14:34.436Z,79.83
2019-04-05T12:15:46.497Z,78.88
2019-04-05T12:16:56.173Z,79.44
2019-04-05T12:18:08.230Z,79.44
2019-04-05T12:19:23.045Z,79.06
2019-04-05T12:20:47.573Z,78.78
2019-04-05T12:22:11.720Z,78.97
2019-04-05T12:23:22.958Z,78.5
2019-04-05T12:24:35.661Z,78.4
2019-04-05T12:25:45.603Z,78.4
2019-04-05T12:26:57.475Z,78.69
2019-04-05T12:28:12.973Z,78.59
2019-04-05T12:29:22.911Z,78.5
2019-04-05T12:30:32.837Z,78.5
2019-04-05T12:31:42.834Z,78.5
2019-04-05T12:32:52.769Z,78.4
2019-04-05T12:34:15.871Z,78.4
2019-04-05T12:35:31.505Z,77.83
2019-04-05T12:36:42.976Z,77.73
2019-04-05T12:37:58.012Z,77.83
2019-04-05T12:39:10.685Z,77.55
2019-04-05T12:40:20.608Z,77.55
2019-04-05T12:41:30.538Z,77.92
2019-04-05T12:42:46.034Z,77.83
2019-04-05T12:43:58.301Z,78.21
2019-04-05T12:45:08.226Z,77.92
2019-04-05T12:46:22.405Z,78.02
2019-04-05T12:47:33.962Z,77.83
2019-04-05T12:48:46.206Z,78.11
2019-04-05T12:49:56.386Z,78.21
2019-04-05T12:51:07.940Z,77.87
2019-04-05T12:52:27.509Z,77.83
2019-04-05T12:53:37.914Z,78.06
2019-04-05T12:54:50.390Z,77.97
2019-04-05T12:56:02.616Z,77.87
2019-04-05T12:57:12.555Z,78.16
2019-04-05T12:58:25.443Z,77.97
2019-04-05T12:59:38.156Z,78.06
2019-04-05T13:00:48.083Z,77.39
2019-04-05T13:02:02.209Z,78.16
2019-04-05T13:03:12.150Z,77.39
2019-04-05T13:04:24.018Z,77.3
2019-04-05T13:05:34.045Z,77.11
2019-04-05T13:06:44.803Z,77.3
2019-04-05T13:07:57.907Z,77.11
2019-04-05T13:09:08.753Z,76.35
2019-04-05T13:10:18.917Z,76.63
2019-04-05T13:11:35.636Z,76.06
2019-04-05T13:12:45.569Z,76.16
2019-04-05T13:13:59.757Z,76.44
2019-04-05T13:15:17.200Z,75.87
2019-04-05T13:16:27.118Z,75.96
2019-04-05T13:17:37.044Z,75.68
2019-04-05T13:18:46.973Z,76.06
2019-04-05T13:19:58.371Z,76.25
2019-04-05T13:21:17.832Z,76.63
2019-04-05T13:22:35.588Z,76.16
2019-04-05T13:23:45.548Z,75.78
2019-04-05T13:24:55.483Z,76.73
2019-04-05T13:26:05.421Z,76.73
2019-04-05T13:27:19.115Z,76.92
2019-04-05T13:28:29.104Z,76.73
2019-04-05T13:29:39.042Z,77.01
2019-04-05T13:30:51.836Z,77.01
2019-04-05T13:32:03.221Z,76.54
2019-04-05T13:33:13.148Z,76.82
2019-04-05T13:34:28.888Z,75.96
2019-04-05T13:35:38.813Z,76.16
2019-04-05T13:36:48.748Z,76.73
2019-04-05T13:38:00.651Z,76.16
2019-04-05T13:39:11.307Z,76.44
2019-04-05T13:40:21.238Z,76.78
2019-04-05T13:41:34.832Z,76.97
2019-04-05T13:42:44.756Z,76.97
2019-04-05T13:43:54.681Z,77.36
2019-04-05T13:45:07.358Z,77.45
2019-04-05T13:46:26.040Z,77.17
2019-04-05T13:47:40.422Z,77.07
2019-04-05T13:48:50.359Z,77.17
2019-04-05T13:50:00.287Z,77.36
2019-04-05T13:51:27.143Z,77.26
2019-04-05T13:52:42.047Z,76.97
2019-04-05T13:53:52.175Z,77.45
2019-04-05T13:55:02.106Z,77.36
2019-04-05T13:56:15.524Z,76.97
2019-04-05T13:57:28.274Z,76.97
2019-04-05T13:58:38.473Z,77.83
2019-04-05T13:59:51.532Z,77.92
2019-04-05T14:01:01.489Z,78.02
2019-04-05T14:02:11.432Z,78.59
2019-04-05T14:03:24.379Z,78.59
2019-04-05T14:04:34.311Z,79.06
2019-04-05T14:05:44.243Z,78.5
2019-04-05T14:06:57.859Z,78.5
2019-04-05T14:08:13.084Z,78.93
2019-04-05T14:09:22.762Z,79.16
2019-04-05T14:10:34.553Z,79.06
2019-04-05T14:11:46.663Z,78.36
2019-04-05T14:12:56.395Z,78.5
2019-04-05T14:14:06.074Z,79.25
2019-04-05T14:15:19.399Z,79.22
2019-04-05T14:16:29.324Z,79.22
2019-04-05T14:17:43.893Z,79.31
2019-04-05T14:18:56.907Z,79.31
2019-04-05T14:20:09.032Z,79.31
2019-04-05T14:21:24.702Z,79.12
2019-04-05T14:22:55.389Z,79.31
2019-04-05T14:24:06.853Z,78.64
2019-04-05T14:25:16.795Z,78.55
2019-04-05T14:26:33.006Z,78.45
2019-04-05T14:27:42.931Z,79.41
2019-04-05T14:28:55.356Z,79.03
2019-04-05T14:30:08.901Z,79.31
2019-04-05T14:31:21.447Z,78.55
2019-04-05T14:32:34.195Z,78.64
2019-04-05T14:33:44.123Z,79.22
2019-04-05T14:34:57.385Z,79.12
2019-04-05T14:36:10.493Z,79.69
2019-04-05T14:37:25.035Z,79.03
2019-04-05T14:38:34.826Z,79.31
2019-04-05T14:39:44.765Z,79.41
2019-04-05T14:40:54.689Z,79.36
2019-04-05T14:42:14.700Z,79.27
2019-04-05T14:43:24.918Z,79.84
2019-04-05T14:44:34.853Z,80.79
2019-04-05T14:45:44.784Z,80.41
2019-04-05T14:46:55.807Z,80.32
2019-04-05T14:48:07.961Z,79.94
2019-04-05T14:49:17.891Z,80.41
2019-04-05T14:50:30.341Z,80.84
2019-04-05T14:51:52.146Z,81.45
2019-04-05T14:53:06.984Z,81.65
2019-04-05T14:54:16.669Z,81.17
2019-04-05T14:55:27.587Z,81.74
2019-04-05T14:56:39.381Z,81.6
2019-04-05T14:57:49.303Z,81.41
2019-04-05T14:58:58.981Z,82.08
2019-04-05T15:00:08.906Z,83.03
2019-04-05T15:01:22.234Z,83.03
2019-04-05T15:02:32.164Z,83.12
2019-04-05T15:03:42.186Z,82.65
2019-04-05T15:04:52.116Z,82.36
2019-04-05T15:06:02.045Z,82.84
2019-04-05T15:07:11.970Z,82.65
2019-04-05T15:08:25.857Z,83.69
2019-04-05T15:09:35.788Z,83.69
2019-04-05T15:10:45.727Z,83.22
2019-04-05T15:12:01.625Z,83.59
2019-04-05T15:13:12.440Z,83.69
2019-04-05T15:14:22.363Z,83.5
2019-04-05T15:15:32.325Z,83.22